createdAt,value
2019-05-05T00:00:14.358Z,2.87
2019-05-05T00:04:45.527Z,2.87
2019-05-05T00:08:50.058Z,2.73
2019-05-05T00:13:15.019Z,2.87
2019-05-05T00:17:21.411Z,3.37
2019-05-05T00:21:25.676Z,3.87
2019-05-05T00:25:29.937Z,3.40
2019-05-05T00:29:34.742Z,3.57
2019-05-05T00:33:39.187Z,4.03
2019-05-05T00:37:45.075Z,3.73
2019-05-05T00:41:49.370Z,3.57
2019-05-05T00:45:56.287Z,3.70
2019-05-05T00:50:01.295Z,4.30
2019-05-05T00:54:05.593Z,3.30
2019-05-05T00:58:09.852Z,3.17
2019-05-05T01:02:25.044Z,3.77
2019-05-05T01:06:31.009Z,3.50
2019-05-05T01:10:35.941Z,4.13
2019-05-05T01:14:40.176Z,3.80
2019-05-05T01:18:45.107Z,4.40
2019-05-05T01:22:49.395Z,4.50
2019-05-05T01:26:55.082Z,4.37
2019-05-05T01:31:02.899Z,4.30
2019-05-05T01:35:07.709Z,4.37
2019-05-05T01:39:40.684Z,4.67
2019-05-05T01:43:45.249Z,4.40
2019-05-05T01:47:49.478Z,3.90
2019-05-05T01:51:55.239Z,3.70
2019-05-05T01:56:00.479Z,3.50
2019-05-05T02:00:05.370Z,4.30
2019-05-05T02:04:09.728Z,4.00
2019-05-05T02:08:15.299Z,3.93
2019-05-05T02:12:19.772Z,4.10
2019-05-05T02:16:25.382Z,3.90
2019-05-05T02:20:45.104Z,3.83
2019-05-05T02:24:49.459Z,4.00
2019-05-05T02:29:04.930Z,3.70
2019-05-05T02:33:11.806Z,3.60
2019-05-05T02:37:16.265Z,3.60
2019-05-05T02:41:21.539Z,3.97
2019-05-05T02:45:39.115Z,3.77
2019-05-05T02:49:45.581Z,3.63
2019-05-05T02:53:53.721Z,4.00
2019-05-05T02:57:58.725Z,3.57
2019-05-05T03:02:10.182Z,4.07
2019-05-05T03:06:14.575Z,3.63
2019-05-05T03:10:18.860Z,3.43
2019-05-05T03:14:24.221Z,3.47
2019-05-05T03:18:28.761Z,4.03
2019-05-05T03:22:34.110Z,4.20
2019-05-05T03:26:38.683Z,4.10
2019-05-05T03:30:45.436Z,4.40
2019-05-05T03:34:49.807Z,3.87
2019-05-05T03:38:55.643Z,4.03
2019-05-05T03:43:05.100Z,3.80
2019-05-05T03:47:09.825Z,3.50
2019-05-05T03:51:18.889Z,3.63
2019-05-05T03:55:20.638Z,3.97
2019-05-05T03:59:24.938Z,3.60
2019-05-05T04:03:29.585Z,3.77
2019-05-05T04:07:34.078Z,3.60
2019-05-05T04:11:38.346Z,3.53
2019-05-05T04:15:44.623Z,3.47
2019-05-05T04:19:51.486Z,3.57
2019-05-05T04:23:55.673Z,2.50
2019-05-05T04:27:59.920Z,2.20
2019-05-05T04:32:04.739Z,1.73
2019-05-05T04:36:09.048Z,1.90
2019-05-05T04:40:14.785Z,2.23
2019-05-05T04:44:19.306Z,1.80
2019-05-05T04:48:45.300Z,1.40
2019-05-05T04:52:50.752Z,1.40
2019-05-05T04:56:55.199Z,1.53
2019-05-05T05:00:59.447Z,1.47
2019-05-05T05:05:14.491Z,1.60
2019-05-05T05:09:19.141Z,1.97
2019-05-05T05:13:24.437Z,1.40
2019-05-05T05:17:36.820Z,1.47
2019-05-05T05:22:02.355Z,2.00
2019-05-05T05:26:07.567Z,1.83
2019-05-05T05:30:13.718Z,1.87
2019-05-05T05:34:17.968Z,1.70
2019-05-05T05:38:24.121Z,1.80
2019-05-05T05:42:28.185Z,1.87
2019-05-05T05:46:51.917Z,1.90
2019-05-05T05:51:08.519Z,2.10
2019-05-05T05:55:14.573Z,1.87
2019-05-05T05:59:18.725Z,2.03
2019-05-05T06:03:24.513Z,2.43
2019-05-05T06:07:28.972Z,2.13
2019-05-05T06:11:34.578Z,1.93
2019-05-05T06:15:38.781Z,2.00
2019-05-05T06:19:44.627Z,2.03
2019-05-05T06:23:49.095Z,2.20
2019-05-05T06:27:54.288Z,2.13
2019-05-05T06:31:58.734Z,2.27
2019-05-05T06:36:05.129Z,2.70
2019-05-05T06:40:10.747Z,2.47
2019-05-05T06:44:33.969Z,2.30
2019-05-05T06:48:38.193Z,2.50
2019-05-05T06:52:45.113Z,2.43
2019-05-05T06:56:48.517Z,2.30
2019-05-05T07:00:54.314Z,2.73
2019-05-05T07:04:58.682Z,2.43
2019-05-05T07:09:05.338Z,3.20
2019-05-05T07:13:09.282Z,3.17
2019-05-05T07:17:14.069Z,3.10
2019-05-05T07:21:18.463Z,2.90
2019-05-05T07:25:24.236Z,3.27
2019-05-05T07:29:28.701Z,3.00
2019-05-05T07:33:34.632Z,3.30
2019-05-05T07:37:39.529Z,2.97
2019-05-05T07:41:44.750Z,2.97
2019-05-05T07:45:49.198Z,3.07
2019-05-05T07:49:53.655Z,3.33
2019-05-05T07:53:58.001Z,3.37
2019-05-05T07:58:04.195Z,2.80
2019-05-05T08:02:08.347Z,3.13
2019-05-05T08:06:14.482Z,2.77
2019-05-05T08:10:18.691Z,2.30
2019-05-05T08:14:24.577Z,2.73
2019-05-05T08:18:47.984Z,2.80
2019-05-05T08:22:53.646Z,3.07
2019-05-05T08:27:09.079Z,2.83
2019-05-05T08:31:21.328Z,3.30
2019-05-05T08:35:25.678Z,2.87
2019-05-05T08:39:29.949Z,3.33
2019-05-05T08:43:34.819Z,2.70
2019-05-05T08:47:39.234Z,3.17
2019-05-05T08:51:44.326Z,2.40
2019-05-05T08:55:49.059Z,3.07
2019-05-05T08:59:54.475Z,2.67
2019-05-05T09:03:58.826Z,3.10
2019-05-05T09:08:04.507Z,3.00
2019-05-05T09:12:09.195Z,2.90
2019-05-05T09:16:14.842Z,3.20
2019-05-05T09:20:19.252Z,2.90
2019-05-05T09:24:38.262Z,3.13
2019-05-05T09:29:01.475Z,3.23
2019-05-05T09:33:06.372Z,3.03
2019-05-05T09:37:10.631Z,3.13
2019-05-05T09:41:14.945Z,3.03
2019-05-05T09:45:21.048Z,2.80
2019-05-05T09:49:25.332Z,2.60
2019-05-05T09:53:30.052Z,2.70
2019-05-05T09:57:34.523Z,2.40
2019-05-05T10:01:39.173Z,2.47
2019-05-05T10:05:43.576Z,2.77
2019-05-05T10:09:47.883Z,2.63
2019-05-05T10:13:52.111Z,2.13
2019-05-05T10:17:56.680Z,2.33
2019-05-05T10:22:01.070Z,2.50
2019-05-05T10:26:09.139Z,2.20
2019-05-05T10:30:14.292Z,2.37
2019-05-05T10:34:19.482Z,2.60
2019-05-05T10:38:23.790Z,2.80
2019-05-05T10:42:45.920Z,2.23
2019-05-05T10:46:50.200Z,2.27
2019-05-05T10:50:55.726Z,2.30
2019-05-05T10:54:59.970Z,2.53
2019-05-05T10:59:04.294Z,1.80
2019-05-05T11:03:08.872Z,2.10
2019-05-05T11:07:14.508Z,2.20
2019-05-05T11:11:19.349Z,2.17
2019-05-05T11:15:24.682Z,1.87
2019-05-05T11:19:29.215Z,2.20
2019-05-05T11:23:34.571Z,2.63
2019-05-05T11:27:38.959Z,2.30
2019-05-05T11:31:45.193Z,2.30
2019-05-05T11:35:56.531Z,2.50
2019-05-05T11:40:00.811Z,1.90
2019-05-05T11:44:05.312Z,1.93
2019-05-05T11:48:09.618Z,1.73
2019-05-05T11:52:13.850Z,1.90
2019-05-05T11:56:18.149Z,2.20
2019-05-05T12:00:24.144Z,1.60
2019-05-05T12:04:28.880Z,1.90
2019-05-05T12:08:34.505Z,2.40
2019-05-05T12:12:38.964Z,2.07
2019-05-05T12:16:43.937Z,1.90
2019-05-05T12:20:48.314Z,2.20
2019-05-05T12:24:53.498Z,2.23
2019-05-05T12:29:17.428Z,2.00
2019-05-05T12:33:24.225Z,2.33
2019-05-05T12:37:28.047Z,2.03
2019-05-05T12:41:32.321Z,2.30
2019-05-05T12:45:38.292Z,2.33
2019-05-05T12:49:54.526Z,2.07
2019-05-05T12:53:55.273Z,2.13
2019-05-05T12:57:59.649Z,2.40
2019-05-05T13:02:04.510Z,1.90
2019-05-05T13:06:08.781Z,1.90
2019-05-05T13:10:16.278Z,1.77
2019-05-05T13:14:20.663Z,1.87
2019-05-05T13:18:24.940Z,1.80
2019-05-05T13:22:48.175Z,1.60
2019-05-05T13:26:56.677Z,1.60
2019-05-05T13:31:01.285Z,1.60
2019-05-05T13:35:06.975Z,1.77
2019-05-05T13:39:11.345Z,1.70
2019-05-05T13:43:15.608Z,1.90
2019-05-05T13:47:20.077Z,1.93
2019-05-05T13:51:24.288Z,2.13
2019-05-05T13:55:28.540Z,2.13
2019-05-05T13:59:33.995Z,2.37
2019-05-05T14:03:38.399Z,2.23
2019-05-05T14:07:43.625Z,2.00
2019-05-05T14:11:48.053Z,2.20
2019-05-05T14:15:54.388Z,1.40
2019-05-05T14:20:05.199Z,1.30
2019-05-05T14:24:15.148Z,1.73
2019-05-05T14:28:19.432Z,1.50
2019-05-05T14:32:26.169Z,1.80
2019-05-05T14:36:49.435Z,1.60
2019-05-05T14:40:53.828Z,1.60
2019-05-05T14:44:58.213Z,1.77
2019-05-05T14:49:05.729Z,1.70
2019-05-05T14:53:10.772Z,1.37
2019-05-05T14:57:15.039Z,1.50
2019-05-05T15:01:19.521Z,1.33
2019-05-05T15:05:41.829Z,1.50
2019-05-05T15:09:48.642Z,1.77
2019-05-05T15:13:54.046Z,1.60
2019-05-05T15:17:58.436Z,1.70
2019-05-05T15:22:02.661Z,1.40
2019-05-05T15:26:08.166Z,1.70
2019-05-05T15:30:12.986Z,1.70
2019-05-05T15:34:17.291Z,1.90
2019-05-05T15:38:24.245Z,1.60
2019-05-05T15:42:28.637Z,1.80
2019-05-05T15:46:33.712Z,1.47
2019-05-05T15:50:38.282Z,1.43
2019-05-05T15:54:44.479Z,1.40
2019-05-05T15:58:48.516Z,1.60
2019-05-05T16:02:54.711Z,1.60
2019-05-05T16:06:59.004Z,1.40
2019-05-05T16:11:03.734Z,1.50
2019-05-05T16:15:24.169Z,1.70
2019-05-05T16:19:50.303Z,2.00
2019-05-05T16:24:00.185Z,1.73
2019-05-05T16:28:05.561Z,1.43
2019-05-05T16:32:19.533Z,1.60
2019-05-05T16:36:16.457Z,1.70
2019-05-05T16:40:23.163Z,2.17
2019-05-05T16:44:27.152Z,1.70
2019-05-05T16:48:34.324Z,1.63
2019-05-05T16:52:46.032Z,1.80
2019-05-05T16:56:50.020Z,1.60
2019-05-05T17:00:54.564Z,1.40
2019-05-05T17:04:59.113Z,1.30
2019-05-05T17:09:04.539Z,1.40
2019-05-05T17:13:25.208Z,1.70
2019-05-05T17:17:44.465Z,1.73
2019-05-05T17:22:06.244Z,1.47
2019-05-05T17:26:11.454Z,1.70
2019-05-05T17:30:18.769Z,1.23
2019-05-05T17:34:24.755Z,1.70
2019-05-05T17:38:29.254Z,1.67
2019-05-05T17:42:51.137Z,1.30
2019-05-05T17:47:00.123Z,1.03
2019-05-05T17:51:16.391Z,1.30
2019-05-05T17:55:28.658Z,1.40
2019-05-05T17:59:33.744Z,1.33
2019-05-05T18:03:38.253Z,1.20
2019-05-05T18:07:45.214Z,1.00
2019-05-05T18:12:27.053Z,1.20
2019-05-05T18:16:31.352Z,1.00
2019-05-05T18:20:35.628Z,1.40
2019-05-05T18:24:40.039Z,0.90
2019-05-05T18:28:47.865Z,1.17
2019-05-05T18:32:50.785Z,1.20
2019-05-05T18:36:55.144Z,1.30
2019-05-05T18:41:03.758Z,1.27
2019-05-05T18:45:11.140Z,1.10
2019-05-05T18:49:15.943Z,1.17
2019-05-05T18:53:23.011Z,0.93
2019-05-05T18:57:27.639Z,1.20
2019-05-05T19:01:54.211Z,1.40
2019-05-05T19:06:09.593Z,1.10
2019-05-05T19:10:14.381Z,1.20
2019-05-05T19:14:18.711Z,1.30
2019-05-05T19:18:24.545Z,1.00
2019-05-05T19:22:28.899Z,1.27
2019-05-05T19:26:33.987Z,1.33
2019-05-05T19:30:41.291Z,1.10
2019-05-05T19:34:45.878Z,1.30
2019-05-05T19:38:50.260Z,1.30
2019-05-05T19:42:55.215Z,1.53
2019-05-05T19:47:09.485Z,1.20
2019-05-05T19:51:15.394Z,1.20
2019-05-05T19:55:19.856Z,1.47
2019-05-05T19:59:24.184Z,1.20
2019-05-05T20:03:28.701Z,1.20
2019-05-05T20:07:33.267Z,1.20
2019-05-05T20:11:39.448Z,1.47
2019-05-05T20:15:55.587Z,1.40
2019-05-05T20:20:00.701Z,1.40
2019-05-05T20:24:05.075Z,1.50
2019-05-05T20:28:09.311Z,1.43
2019-05-05T20:32:14.166Z,1.13
2019-05-05T20:36:23.749Z,1.30
2019-05-05T20:40:30.941Z,1.17
2019-05-05T20:44:35.212Z,1.27
2019-05-05T20:48:41.321Z,1.43
2019-05-05T20:52:45.693Z,1.10
2019-05-05T20:56:49.923Z,1.10
2019-05-05T21:00:54.931Z,0.97
2019-05-05T21:04:59.552Z,1.10
2019-05-05T21:09:04.824Z,1.43
2019-05-05T21:13:09.112Z,1.10
2019-05-05T21:17:13.692Z,1.03
2019-05-05T21:21:24.659Z,1.17
2019-05-05T21:25:30.847Z,1.20
2019-05-05T21:29:41.541Z,1.10
2019-05-05T21:33:41.098Z,1.37
2019-05-05T21:37:45.415Z,1.07
2019-05-05T21:41:49.960Z,1.20
2019-05-05T21:45:54.165Z,1.10
2019-05-05T21:49:58.434Z,0.90
2019-05-05T21:54:20.293Z,1.17
2019-05-05T21:58:28.408Z,1.03
2019-05-05T22:02:34.498Z,0.93
2019-05-05T22:06:38.608Z,1.10
2019-05-05T22:10:42.931Z,1.20
2019-05-05T22:14:47.209Z,1.10
2019-05-05T22:18:53.866Z,1.10
2019-05-05T22:22:58.036Z,1.23
2019-05-05T22:27:04.563Z,1.20
2019-05-05T22:31:08.407Z,1.27
2019-05-05T22:35:14.044Z,1.10
2019-05-05T22:39:18.768Z,1.43
2019-05-05T22:43:23.842Z,1.10
2019-05-05T22:47:28.383Z,1.17
2019-05-05T22:51:33.815Z,1.20
2019-05-05T22:55:38.158Z,1.07
2019-05-05T22:59:42.393Z,1.37
2019-05-05T23:04:05.575Z,1.10
2019-05-05T23:08:09.755Z,1.10
2019-05-05T23:12:14.080Z,1.20
2019-05-05T23:16:26.454Z,1.30
2019-05-05T23:21:03.652Z,1.47
2019-05-05T23:25:14.635Z,1.73
2019-05-05T23:29:19.212Z,1.20
2019-05-05T23:33:24.954Z,1.10
2019-05-05T23:37:29.354Z,1.40
2019-05-05T23:41:34.856Z,1.33
2019-05-05T23:45:39.188Z,1.33
2019-05-05T23:49:44.037Z,1.17
2019-05-05T23:53:48.414Z,1.37
2019-05-05T23:57:54.713Z,1.40
